Aviation Digital Data Service (ADDS)

Output produced by METARs form (0053 UTC 25 July 2017)
found at http://aviationweather.gov/adds/metars/
 
KEKN 242340Z 2500/2524 VRB03KT P6SM SCT025 
     FM250800 00000KT 1/4SM FG BKN001 
     FM251300 00000KT 4SM BR BKN005 
     FM251400 31005KT P6SM BKN025